createdAt,value
2022-11-17T00:00:41.930Z,93498.03
2022-11-17T00:03:16.226Z,93492.19
2022-11-17T00:05:44.594Z,93500.13
2022-11-17T00:08:11.757Z,93507.03
2022-11-17T00:10:38.705Z,93498.31
2022-11-17T00:13:24.452Z,93497.50
2022-11-17T00:15:51.529Z,93492.47
2022-11-17T00:18:37.247Z,93492.72
2022-11-17T00:21:21.348Z,93481.88
2022-11-17T00:23:49.771Z,93480.28
2022-11-17T00:26:20.217Z,93465.75
2022-11-17T00:28:48.101Z,93474.22
2022-11-17T00:31:33.878Z,93481.88
2022-11-17T00:34:07.170Z,93486.63
2022-11-17T00:36:41.710Z,93490.09
2022-11-17T00:39:10.263Z,93479.50
2022-11-17T00:41:37.338Z,93473.66
2022-11-17T00:44:06.787Z,93473.94
2022-11-17T00:46:35.221Z,93467.06
2022-11-17T00:49:02.273Z,93459.41
2022-11-17T00:51:29.537Z,93450.91
2022-11-17T00:53:56.906Z,93455.41
2022-11-17T00:56:24.143Z,93448.00
2022-11-17T00:58:51.768Z,93453.03
2022-11-17T01:01:19.471Z,93455.69
2022-11-17T01:03:46.678Z,93463.34
2022-11-17T01:06:18.128Z,93460.97
2022-11-17T01:08:46.211Z,93456.75
2022-11-17T01:11:18.088Z,93460.19
2022-11-17T01:13:47.641Z,93469.72
2022-11-17T01:16:18.033Z,93470.50
2022-11-17T01:18:47.488Z,93468.13
2022-11-17T01:21:19.036Z,93468.94
2022-11-17T01:23:48.396Z,93465.47
2022-11-17T01:26:36.710Z,93457.81
2022-11-17T01:29:05.859Z,93446.94
2022-11-17T01:31:39.283Z,93453.28
2022-11-17T01:34:07.484Z,93447.72
2022-11-17T01:37:00.903Z,93448.81
2022-11-17T01:39:30.196Z,93437.69
2022-11-17T01:41:58.197Z,93435.03
2022-11-17T01:44:54.459Z,93433.44
2022-11-17T01:47:39.857Z,93434.50
2022-11-17T01:50:24.186Z,93423.41
2022-11-17T01:52:54.133Z,93428.44
2022-11-17T01:55:24.559Z,93426.56
2022-11-17T01:58:03.306Z,93439.00
2022-11-17T02:00:30.582Z,93439.53
2022-11-17T02:02:58.316Z,93444.03
2022-11-17T02:06:07.278Z,93446.94
2022-11-17T02:08:38.095Z,93444.56
2022-11-17T02:11:13.014Z,93429.47
2022-11-17T02:13:40.802Z,93427.66
2022-11-17T02:16:13.247Z,93419.72
2022-11-17T02:18:44.597Z,93418.63
2022-11-17T02:22:07.680Z,93415.72
2022-11-17T02:25:08.296Z,93411.75
2022-11-17T02:28:08.143Z,93421.81
2022-11-17T02:30:53.936Z,93421.00
2022-11-17T02:33:44.957Z,93431.06
2022-11-17T02:36:41.474Z,93427.88
2022-11-17T02:39:22.346Z,93419.16
2022-11-17T02:42:44.066Z,93415.44
2022-11-17T02:45:19.031Z,93410.16
2022-11-17T02:47:48.754Z,93411.25
2022-11-17T02:50:17.244Z,93408.59
2022-11-17T02:52:44.303Z,93409.09
2022-11-17T02:55:12.053Z,93411.75
2022-11-17T02:57:41.384Z,93405.41
2022-11-17T03:00:14.703Z,93411.50
2022-11-17T03:03:09.812Z,93409.09
2022-11-17T03:06:06.834Z,93411.75
2022-11-17T03:08:34.176Z,93404.63
2022-11-17T03:11:08.728Z,93391.66
2022-11-17T03:13:58.744Z,93395.09
2022-11-17T03:16:49.743Z,93405.13
2022-11-17T03:19:28.014Z,93388.50
2022-11-17T03:22:09.915Z,93396.41
2022-11-17T03:24:48.319Z,93397.47
2022-11-17T03:27:26.989Z,93384.78
2022-11-17T03:29:59.971Z,93383.72
2022-11-17T03:32:30.673Z,93386.63
2022-11-17T03:35:04.097Z,93389.25
2022-11-17T03:37:34.782Z,93391.66
2022-11-17T03:40:09.798Z,93404.63
2022-11-17T03:42:40.884Z,93392.19
2022-11-17T03:45:41.339Z,93395.88
2022-11-17T03:48:17.287Z,93402.50
2022-11-17T03:50:55.723Z,93385.84
2022-11-17T03:53:24.294Z,93408.31
2022-11-17T03:56:33.123Z,93412.03
2022-11-17T03:59:13.581Z,93409.09
2022-11-17T04:01:40.738Z,93403.31
2022-11-17T04:04:08.044Z,93399.84
2022-11-17T04:06:34.974Z,93402.50
2022-11-17T04:09:02.051Z,93389.28
2022-11-17T04:12:04.569Z,93403.81
2022-11-17T04:15:07.477Z,93398.78
2022-11-17T04:17:34.669Z,93397.47
2022-11-17T04:20:01.660Z,93400.13
2022-11-17T04:22:28.560Z,93394.31
2022-11-17T04:24:55.430Z,93392.44
2022-11-17T04:27:40.807Z,93386.63
2022-11-17T04:30:08.637Z,93387.44
2022-11-17T04:32:35.664Z,93384.25
2022-11-17T04:35:02.603Z,93396.16
2022-11-17T04:37:29.534Z,93394.56
2022-11-17T04:39:56.480Z,93394.81
2022-11-17T04:42:23.425Z,93406.47
2022-11-17T04:44:50.426Z,93398.53
2022-11-17T04:47:17.383Z,93402.25
2022-11-17T04:49:44.612Z,93397.75
2022-11-17T04:52:11.868Z,93399.34
2022-11-17T04:54:38.805Z,93396.16
2022-11-17T04:57:05.822Z,93396.97
2022-11-17T04:59:32.908Z,93397.47
2022-11-17T05:02:05.300Z,93390.59
2022-11-17T05:04:51.501Z,93384.50
2022-11-17T05:07:18.624Z,93369.97
2022-11-17T05:09:45.613Z,93384.50
2022-11-17T05:12:31.107Z,93382.66
2022-11-17T05:14:58.142Z,93378.97
2022-11-17T05:17:25.084Z,93386.38
2022-11-17T05:19:52.231Z,93390.59
2022-11-17T05:22:41.891Z,93384.25
2022-11-17T05:25:10.136Z,93385.84
2022-11-17T05:27:37.947Z,93388.22
2022-11-17T05:30:08.177Z,93371.28
2022-11-17T05:32:35.521Z,93368.66
2022-11-17T05:35:02.601Z,93380.28
2022-11-17T05:37:29.775Z,93369.69
2022-11-17T05:39:56.888Z,93380.53
2022-11-17T05:42:23.969Z,93386.38
2022-11-17T05:44:51.095Z,93389.81
2022-11-17T05:47:18.592Z,93371.56
2022-11-17T05:49:45.885Z,93365.22
2022-11-17T05:52:13.174Z,93366.25
2022-11-17T05:54:40.442Z,93360.72
2022-11-17T05:57:12.817Z,93370.50
2022-11-17T05:59:50.222Z,93371.56
2022-11-17T06:02:24.111Z,93362.03
2022-11-17T06:04:52.087Z,93366.78
2022-11-17T06:07:20.532Z,93366.50
2022-11-17T06:09:48.131Z,93368.91
2022-11-17T06:12:15.506Z,93363.63
2022-11-17T06:14:43.086Z,93363.63
2022-11-17T06:17:26.278Z,93355.94
2022-11-17T06:20:03.346Z,93356.75
2022-11-17T06:22:30.883Z,93356.75
2022-11-17T06:24:59.929Z,93364.41
2022-11-17T06:27:27.348Z,93359.66
2022-11-17T06:29:55.966Z,93362.81
2022-11-17T06:32:23.392Z,93368.91
2022-11-17T06:34:55.581Z,93377.63
2022-11-17T06:37:24.650Z,93377.09
2022-11-17T06:39:52.299Z,93377.91
2022-11-17T06:42:19.558Z,93380.53
2022-11-17T06:44:46.688Z,93381.31
2022-11-17T06:47:13.729Z,93387.66
2022-11-17T06:49:40.697Z,93375.25
2022-11-17T06:52:07.787Z,93376.84
2022-11-17T06:54:34.798Z,93366.50
2022-11-17T06:57:01.976Z,93378.69
2022-11-17T06:59:29.427Z,93374.19
2022-11-17T07:01:56.423Z,93381.09
2022-11-17T07:04:23.984Z,93378.44
2022-11-17T07:06:51.076Z,93381.09
2022-11-17T07:09:18.231Z,93382.91
2022-11-17T07:11:45.367Z,93374.97
2022-11-17T07:14:12.732Z,93359.91
2022-11-17T07:16:43.299Z,93370.50
2022-11-17T07:19:11.495Z,93369.69
2022-11-17T07:21:38.921Z,93374.72
2022-11-17T07:24:06.651Z,93370.50
2022-11-17T07:26:33.758Z,93359.91
2022-11-17T07:29:01.991Z,93372.88
2022-11-17T07:31:28.945Z,93360.69
2022-11-17T07:33:56.053Z,93358.06
2022-11-17T07:36:23.087Z,93356.19
2022-11-17T07:38:50.158Z,93353.53
2022-11-17T07:41:17.178Z,93350.91
2022-11-17T07:43:44.373Z,93356.47
2022-11-17T07:46:14.070Z,93351.72
2022-11-17T07:48:44.375Z,93366.53
2022-11-17T07:51:14.262Z,93359.38
2022-11-17T07:53:41.588Z,93359.38
2022-11-17T07:56:11.232Z,93344.06
2022-11-17T07:58:40.002Z,93357.50
2022-11-17T08:01:10.660Z,93353.81
2022-11-17T08:03:38.153Z,93364.94
2022-11-17T08:06:09.492Z,93376.03
2022-11-17T08:08:38.426Z,93374.19
2022-11-17T08:11:08.878Z,93365.44
2022-11-17T08:13:36.968Z,93372.59
2022-11-17T08:16:06.612Z,93372.59
2022-11-17T08:18:35.100Z,93375.78
2022-11-17T08:21:08.156Z,93370.75
2022-11-17T08:23:36.308Z,93370.50
2022-11-17T08:26:05.157Z,93361.75
2022-11-17T08:28:34.329Z,93370.22
2022-11-17T08:31:04.461Z,93361.75
2022-11-17T08:33:35.349Z,93367.84
2022-11-17T08:36:04.022Z,93373.13
2022-11-17T08:38:32.189Z,93369.41
2022-11-17T08:41:03.672Z,93377.38
2022-11-17T08:43:33.937Z,93374.72
2022-11-17T08:46:02.610Z,93366.78
2022-11-17T08:48:31.675Z,93371.00
2022-11-17T08:50:59.404Z,93367.31
2022-11-17T08:53:26.327Z,93374.47
2022-11-17T08:55:53.331Z,93375.50
2022-11-17T08:58:20.518Z,93367.56
2022-11-17T09:00:48.016Z,93365.72
2022-11-17T09:03:15.470Z,93363.06
2022-11-17T09:05:47.422Z,93351.16
2022-11-17T09:08:44.907Z,93362.00
2022-11-17T09:11:10.007Z,93368.13
2022-11-17T09:13:38.374Z,93374.47
2022-11-17T09:16:09.390Z,93384.00
2022-11-17T09:18:38.999Z,93380.81
2022-11-17T09:21:13.678Z,93383.72
2022-11-17T09:23:41.104Z,93367.84
2022-11-17T09:26:12.459Z,93387.41
2022-11-17T09:28:40.462Z,93390.06
2022-11-17T09:31:17.229Z,93402.25
2022-11-17T09:33:44.845Z,93405.94
2022-11-17T09:36:14.169Z,93396.16
2022-11-17T09:38:42.088Z,93396.16
2022-11-17T09:41:24.895Z,93384.50
2022-11-17T09:44:21.087Z,93385.56
2022-11-17T09:47:03.474Z,93384.78
2022-11-17T09:49:59.584Z,93380.53
2022-11-17T09:52:49.562Z,93372.59
2022-11-17T09:55:37.803Z,93368.91
2022-11-17T09:58:16.331Z,93378.94
2022-11-17T10:00:52.776Z,93385.03
2022-11-17T10:03:42.041Z,93388.75
2022-11-17T10:06:17.943Z,93388.75
2022-11-17T10:09:24.028Z,93401.19
2022-11-17T10:11:54.732Z,93397.72
2022-11-17T10:14:23.074Z,93400.38
2022-11-17T10:16:56.289Z,93410.69
2022-11-17T10:19:29.803Z,93418.13
2022-11-17T10:22:03.018Z,93421.03
2022-11-17T10:24:52.201Z,93432.66
2022-11-17T10:27:32.343Z,93438.50
2022-11-17T10:30:24.863Z,93452.78
2022-11-17T10:32:55.910Z,93448.28
2022-11-17T10:35:35.219Z,93448.53
2022-11-17T10:38:16.159Z,93453.84
2022-11-17T10:40:43.123Z,93452.50
2022-11-17T10:43:13.110Z,93448.00
2022-11-17T10:45:51.646Z,93448.28
2022-11-17T10:48:35.761Z,93442.19
2022-11-17T10:51:19.399Z,93456.22
2022-11-17T10:54:05.241Z,93464.13
2022-11-17T10:56:40.600Z,93465.19
2022-11-17T10:59:17.418Z,93464.13
2022-11-17T11:01:49.014Z,93461.50
2022-11-17T11:04:39.475Z,93451.69
2022-11-17T11:07:06.545Z,93458.06
2022-11-17T11:09:36.202Z,93445.63
2022-11-17T11:12:10.383Z,93439.28
2022-11-17T11:14:43.365Z,93440.06
2022-11-17T11:17:15.629Z,93435.03
2022-11-17T11:19:51.321Z,93434.75
2022-11-17T11:22:28.038Z,93433.97
2022-11-17T11:25:16.270Z,93428.69
2022-11-17T11:28:11.636Z,93423.41
2022-11-17T11:30:59.253Z,93400.13
2022-11-17T11:33:39.363Z,93414.69
2022-11-17T11:36:37.302Z,93403.28
2022-11-17T11:39:29.903Z,93402.50
2022-11-17T11:42:54.055Z,93405.41
2022-11-17T11:45:42.866Z,93395.34
2022-11-17T11:48:32.269Z,93391.38
2022-11-17T11:51:11.992Z,93384.22
2022-11-17T11:54:26.200Z,93385.56
2022-11-17T11:56:55.017Z,93390.59
2022-11-17T11:59:41.932Z,93387.97
2022-11-17T12:02:32.291Z,93384.50
2022-11-17T12:05:40.463Z,93380.03
2022-11-17T12:08:42.714Z,93381.84
2022-11-17T12:11:36.326Z,93396.13
2022-11-17T12:14:06.233Z,93398.00
2022-11-17T12:16:37.003Z,93396.13
2022-11-17T12:20:09.223Z,93389.53
2022-11-17T12:22:37.842Z,93391.66
2022-11-17T12:25:30.279Z,93380.25
2022-11-17T12:27:59.590Z,93376.28
2022-11-17T12:30:32.750Z,93374.47
2022-11-17T12:33:04.003Z,93365.72
2022-11-17T12:35:36.537Z,93366.53
2022-11-17T12:38:15.609Z,93369.16
2022-11-17T12:40:51.772Z,93368.13
2022-11-17T12:43:24.806Z,93371.81
2022-11-17T12:46:06.922Z,93367.03
2022-11-17T12:48:57.965Z,93359.63
2022-11-17T12:51:52.286Z,93368.13
2022-11-17T12:54:32.875Z,93363.06
2022-11-17T12:57:11.134Z,93369.19
2022-11-17T13:00:13.308Z,93363.34
2022-11-17T13:02:49.765Z,93357.00
2022-11-17T13:05:21.269Z,93371.00
2022-11-17T13:07:48.335Z,93366.53
2022-11-17T13:10:32.858Z,93378.69
2022-11-17T13:13:29.432Z,93386.38
2022-11-17T13:15:59.508Z,93395.34
2022-11-17T13:18:35.006Z,93388.22
2022-11-17T13:21:03.347Z,93381.06
2022-11-17T13:23:32.700Z,93390.06
2022-11-17T13:26:19.722Z,93363.88
2022-11-17T13:28:48.295Z,93371.81
2022-11-17T13:31:25.873Z,93381.84
2022-11-17T13:34:23.881Z,93387.16
2022-11-17T13:37:01.750Z,93386.09
2022-11-17T13:39:29.029Z,93386.09
2022-11-17T13:42:02.382Z,93374.72
2022-11-17T13:44:29.845Z,93370.50
2022-11-17T13:46:56.899Z,93377.09
2022-11-17T13:49:38.414Z,93378.94
2022-11-17T13:52:24.295Z,93377.38
2022-11-17T13:54:52.097Z,93375.50
2022-11-17T13:57:27.523Z,93378.94
2022-11-17T13:59:55.844Z,93377.13
2022-11-17T14:02:26.303Z,93387.97
2022-11-17T14:05:13.416Z,93390.59
2022-11-17T14:07:42.842Z,93391.66
2022-11-17T14:10:22.573Z,93395.09
2022-11-17T14:13:02.601Z,93388.75
2022-11-17T14:15:37.152Z,93390.34
2022-11-17T14:18:24.577Z,93388.47
2022-11-17T14:21:06.621Z,93385.81
2022-11-17T14:23:34.773Z,93387.16
2022-11-17T14:26:01.996Z,93390.06
2022-11-17T14:28:29.178Z,93382.66
2022-11-17T14:30:57.956Z,93385.31
2022-11-17T14:33:25.553Z,93369.44
2022-11-17T14:35:58.706Z,93369.41
2022-11-17T14:38:26.233Z,93367.03
2022-11-17T14:40:53.936Z,93362.56
2022-11-17T14:43:22.455Z,93353.03
2022-11-17T14:45:50.746Z,93365.19
2022-11-17T14:48:19.534Z,93365.19
2022-11-17T14:50:47.667Z,93357.28
2022-11-17T14:53:15.054Z,93368.63
2022-11-17T14:55:42.206Z,93365.19
2022-11-17T14:58:10.031Z,93379.22
2022-11-17T15:00:37.486Z,93368.91
2022-11-17T15:03:04.623Z,93381.84
2022-11-17T15:05:31.842Z,93379.22
2022-11-17T15:07:59.271Z,93369.19
2022-11-17T15:10:26.477Z,93374.97
2022-11-17T15:12:53.547Z,93367.84
2022-11-17T15:15:20.692Z,93364.41
2022-11-17T15:17:47.894Z,93360.97
2022-11-17T15:20:15.066Z,93364.41
2022-11-17T15:22:42.738Z,93367.03
2022-11-17T15:25:10.091Z,93371.56
2022-11-17T15:27:37.114Z,93374.47
2022-11-17T15:30:05.303Z,93377.13
2022-11-17T15:32:32.365Z,93374.72
2022-11-17T15:34:59.330Z,93376.31
2022-11-17T15:37:26.414Z,93372.59
2022-11-17T15:39:53.759Z,93376.31
2022-11-17T15:42:20.662Z,93364.94
2022-11-17T15:44:48.217Z,93360.69
2022-11-17T15:47:15.262Z,93358.59
2022-11-17T15:49:42.266Z,93359.91
2022-11-17T15:52:09.592Z,93358.84
2022-11-17T15:54:36.874Z,93358.34
2022-11-17T15:57:04.639Z,93367.84
2022-11-17T15:59:31.681Z,93359.91
2022-11-17T16:01:59.062Z,93358.84
2022-11-17T16:04:26.126Z,93363.34
2022-11-17T16:06:53.237Z,93363.34
2022-11-17T16:09:21.079Z,93357.28
2022-11-17T16:11:48.291Z,93353.81
2022-11-17T16:14:15.758Z,93353.03
2022-11-17T16:16:45.070Z,93350.41
2022-11-17T16:19:12.022Z,93352.00
2022-11-17T16:21:39.043Z,93360.69
2022-11-17T16:24:08.035Z,93377.63
2022-11-17T16:26:36.332Z,93368.09
2022-11-17T16:29:06.503Z,93366.25
2022-11-17T16:31:36.001Z,93362.81
2022-11-17T16:34:13.144Z,93355.94
2022-11-17T16:36:42.663Z,93364.94
2022-11-17T16:39:13.821Z,93366.25
2022-11-17T16:41:47.737Z,93378.16
2022-11-17T16:44:18.299Z,93374.44
2022-11-17T16:46:48.209Z,93371.81
2022-11-17T16:49:18.329Z,93370.25
2022-11-17T16:51:53.997Z,93367.84
2022-11-17T16:54:21.387Z,93371.28
2022-11-17T16:56:48.613Z,93375.78
2022-11-17T16:59:16.737Z,93367.84
2022-11-17T17:01:44.243Z,93373.94
2022-11-17T17:04:12.681Z,93382.66
2022-11-17T17:06:42.676Z,93374.19
2022-11-17T17:09:11.528Z,93379.22
2022-11-17T17:11:38.965Z,93379.22
2022-11-17T17:14:09.389Z,93386.09
2022-11-17T17:16:38.224Z,93388.22
2022-11-17T17:19:08.363Z,93380.56
2022-11-17T17:21:37.422Z,93387.41
2022-11-17T17:24:05.552Z,93385.84
2022-11-17T17:26:34.966Z,93386.34
2022-11-17T17:29:03.930Z,93387.41
2022-11-17T17:31:35.032Z,93398.78
2022-11-17T17:34:02.760Z,93396.41
2022-11-17T17:36:30.588Z,93389.53
2022-11-17T17:39:01.869Z,93398.78
2022-11-17T17:41:35.927Z,93395.34
2022-11-17T17:44:05.776Z,93387.69
2022-11-17T17:46:37.114Z,93375.25
2022-11-17T17:49:04.677Z,93380.00
2022-11-17T17:51:31.940Z,93385.84
2022-11-17T17:54:01.144Z,93386.91
2022-11-17T17:56:30.313Z,93388.50
2022-11-17T17:58:58.313Z,93389.53
2022-11-17T18:01:28.639Z,93389.53
2022-11-17T18:04:01.334Z,93389.53
2022-11-17T18:06:39.552Z,93383.97
2022-11-17T18:09:10.616Z,93379.47
2022-11-17T18:11:40.666Z,93380.00
2022-11-17T18:14:10.106Z,93367.31
2022-11-17T18:16:37.063Z,93381.84
2022-11-17T18:19:08.651Z,93378.41
2022-11-17T18:21:36.463Z,93363.34
2022-11-17T18:24:04.198Z,93368.63
2022-11-17T18:26:33.908Z,93365.47
2022-11-17T18:29:05.529Z,93367.84
2022-11-17T18:31:36.406Z,93360.69
2022-11-17T18:34:08.182Z,93360.97
2022-11-17T18:36:35.658Z,93371.53
2022-11-17T18:39:03.586Z,93370.50
2022-11-17T18:41:33.625Z,93373.91
2022-11-17T18:44:01.217Z,93375.78
2022-11-17T18:46:31.511Z,93380.28
2022-11-17T18:48:59.546Z,93380.28
2022-11-17T18:51:30.036Z,93390.06
2022-11-17T18:54:00.434Z,93381.34
2022-11-17T18:56:32.066Z,93376.03
2022-11-17T18:58:59.440Z,93370.75
2022-11-17T19:01:29.150Z,93371.81
2022-11-17T19:04:00.812Z,93371.53
2022-11-17T19:06:28.632Z,93364.66
2022-11-17T19:08:58.931Z,93365.75
2022-11-17T19:11:28.363Z,93361.22
2022-11-17T19:13:55.418Z,93371.81
2022-11-17T19:16:25.421Z,93370.75
2022-11-17T19:18:55.408Z,93372.88
2022-11-17T19:21:26.405Z,93367.31
2022-11-17T19:23:57.858Z,93376.03
2022-11-17T19:26:28.510Z,93367.84
2022-11-17T19:29:09.852Z,93375.25
2022-11-17T19:31:39.931Z,93382.38
2022-11-17T19:34:07.117Z,93375.25
2022-11-17T19:36:35.276Z,93368.38
2022-11-17T19:39:03.722Z,93373.13
2022-11-17T19:41:37.060Z,93381.59
2022-11-17T19:44:08.227Z,93378.16
2022-11-17T19:46:38.972Z,93364.16
2022-11-17T19:49:07.949Z,93386.88
2022-11-17T19:51:37.085Z,93381.34
2022-11-17T19:54:07.801Z,93377.38
2022-11-17T19:56:35.445Z,93372.59
2022-11-17T19:59:03.427Z,93372.59
2022-11-17T20:01:31.359Z,93367.03
2022-11-17T20:04:00.304Z,93362.56
2022-11-17T20:06:37.137Z,93362.81
2022-11-17T20:09:14.417Z,93359.38
2022-11-17T20:11:42.617Z,93356.75
2022-11-17T20:14:09.903Z,93360.69
2022-11-17T20:16:38.646Z,93353.28
2022-11-17T20:19:05.734Z,93354.63
2022-11-17T20:21:34.051Z,93357.28
2022-11-17T20:24:01.823Z,93363.63
2022-11-17T20:26:32.479Z,93359.09
2022-11-17T20:29:00.470Z,93362.56
2022-11-17T20:31:32.410Z,93360.72
2022-11-17T20:34:01.390Z,93361.75
2022-11-17T20:36:32.208Z,93371.56
2022-11-17T20:39:02.158Z,93373.66
2022-11-17T20:41:30.170Z,93367.03
2022-11-17T20:43:59.450Z,93364.69
2022-11-17T20:46:27.512Z,93365.22
2022-11-17T20:48:54.902Z,93358.34
2022-11-17T20:51:25.058Z,93357.00
2022-11-17T20:53:52.253Z,93366.25
2022-11-17T20:56:19.343Z,93363.34
2022-11-17T20:58:46.669Z,93363.34
2022-11-17T21:01:23.943Z,93357.53
2022-11-17T21:03:51.928Z,93356.47
2022-11-17T21:06:23.069Z,93355.69
2022-11-17T21:08:50.468Z,93357.28
2022-11-17T21:11:39.886Z,93364.94
2022-11-17T21:14:10.454Z,93371.00
2022-11-17T21:16:40.797Z,93378.69
2022-11-17T21:19:09.057Z,93381.84
2022-11-17T21:21:36.265Z,93386.09
2022-11-17T21:24:04.110Z,93385.81
2022-11-17T21:26:31.852Z,93382.94
2022-11-17T21:29:04.773Z,93371.03
2022-11-17T21:31:34.080Z,93371.03
2022-11-17T21:34:04.320Z,93371.28
2022-11-17T21:36:32.626Z,93356.19
2022-11-17T21:39:00.362Z,93357.50
2022-11-17T21:41:35.182Z,93342.16
2022-11-17T21:44:03.341Z,93328.94
2022-11-17T21:46:33.710Z,93330.78
2022-11-17T21:49:01.556Z,93340.56
2022-11-17T21:51:35.077Z,93347.16
2022-11-17T21:54:05.794Z,93349.56
2022-11-17T21:56:33.918Z,93345.06
2022-11-17T21:59:06.351Z,93342.13
2022-11-17T22:01:34.361Z,93340.81
2022-11-17T22:04:02.505Z,93344.25
2022-11-17T22:06:30.369Z,93335.25
2022-11-17T22:08:59.549Z,93338.69
2022-11-17T22:11:36.565Z,93332.63
2022-11-17T22:14:20.467Z,93328.66
2022-11-17T22:16:51.970Z,93338.69
2022-11-17T22:19:21.856Z,93332.63
2022-11-17T22:21:52.838Z,93326.00
2022-11-17T22:24:21.171Z,93332.63
2022-11-17T22:26:48.327Z,93324.69
2022-11-17T22:29:19.471Z,93334.47
2022-11-17T22:31:48.772Z,93338.69
2022-11-17T22:34:17.367Z,93344.78
2022-11-17T22:36:44.645Z,93341.59
2022-11-17T22:39:12.160Z,93345.56
2022-11-17T22:41:39.342Z,93333.13
2022-11-17T22:44:06.534Z,93327.84
2022-11-17T22:46:34.745Z,93331.53
2022-11-17T22:49:02.098Z,93334.19
2022-11-17T22:51:47.621Z,93334.47
2022-11-17T22:54:14.957Z,93341.06
2022-11-17T22:56:41.970Z,93347.16
2022-11-17T22:59:10.616Z,93347.94
2022-11-17T23:01:38.539Z,93351.38
2022-11-17T23:04:06.845Z,93355.63
2022-11-17T23:06:34.329Z,93353.75
2022-11-17T23:09:01.231Z,93341.59
2022-11-17T23:11:37.969Z,93349.00
2022-11-17T23:14:08.201Z,93339.50
2022-11-17T23:16:36.880Z,93350.34
2022-11-17T23:19:05.326Z,93349.28
2022-11-17T23:21:32.597Z,93332.31
2022-11-17T23:23:59.646Z,93341.34
2022-11-17T23:26:27.051Z,93323.88
2022-11-17T23:28:54.022Z,93340.53
2022-11-17T23:31:21.349Z,93332.59
2022-11-17T23:33:49.064Z,93331.81
2022-11-17T23:36:23.408Z,93331.53
2022-11-17T23:38:51.738Z,93334.94
2022-11-17T23:41:20.785Z,93337.59
2022-11-17T23:43:53.066Z,93332.59
2022-11-17T23:46:25.669Z,93329.94
2022-11-17T23:48:53.208Z,93340.25
2022-11-17T23:51:26.351Z,93343.97
2022-11-17T23:53:54.117Z,93342.91
2022-11-17T23:56:21.626Z,93347.13
2022-11-17T23:58:49.777Z,93330.75
